createdAt,value
2019-06-04T00:02:20.170Z,63.03
2019-06-04T00:05:15.668Z,64.23
2019-06-04T00:08:12.948Z,64.43
2019-06-04T00:11:08.486Z,63.13
2019-06-04T00:14:05.029Z,62.33
2019-06-04T00:17:03.344Z,63.98
2019-06-04T00:19:59.145Z,62.53
2019-06-04T00:22:56.404Z,61.43
2019-06-04T00:25:51.033Z,65.87
2019-06-04T00:28:49.115Z,61.70
2019-06-04T00:31:45.878Z,67.30
2019-06-04T00:34:42.440Z,62.80
2019-06-04T00:37:39.053Z,63.13
2019-06-04T00:40:34.463Z,63.67
2019-06-04T00:43:31.236Z,60.90
2019-06-04T00:46:26.852Z,64.40
2019-06-04T00:49:24.296Z,61.00
2019-06-04T00:52:19.147Z,61.40
2019-06-04T00:55:28.228Z,63.90
2019-06-04T00:58:24.458Z,61.47
2019-06-04T01:01:20.755Z,64.47
2019-06-04T01:04:17.362Z,65.40
2019-06-04T01:07:13.351Z,60.60
2019-06-04T01:10:10.095Z,61.17
2019-06-04T01:13:09.855Z,62.73
2019-06-04T01:16:04.283Z,62.77
2019-06-04T01:19:00.597Z,61.90
2019-06-04T01:21:55.713Z,61.73
2019-06-04T01:24:52.139Z,61.17
2019-06-04T01:27:48.620Z,61.80
2019-06-04T01:30:45.343Z,62.27
2019-06-04T01:33:42.110Z,61.70
2019-06-04T01:36:37.851Z,60.63
2019-06-04T01:39:35.082Z,63.70
2019-06-04T01:42:31.851Z,62.37
2019-06-04T01:45:28.606Z,63.00
2019-06-04T01:48:25.356Z,60.40
2019-06-04T01:51:21.343Z,62.90
2019-06-04T01:54:17.881Z,62.00
2019-06-04T01:57:13.132Z,59.53
2019-06-04T02:00:29.607Z,61.47
2019-06-04T02:03:07.520Z,63.00
2019-06-04T02:06:03.827Z,60.95
2019-06-04T02:09:00.290Z,61.27
2019-06-04T02:11:55.846Z,60.73
2019-06-04T02:14:52.437Z,61.68
2019-06-04T02:17:48.147Z,62.17
2019-06-04T02:20:45.976Z,62.35
2019-06-04T02:23:41.909Z,60.60
2019-06-04T02:26:38.833Z,59.47
2019-06-04T02:29:35.596Z,64.55
2019-06-04T02:33:00.923Z,59.37
2019-06-04T02:35:29.816Z,58.90
2019-06-04T02:38:29.717Z,60.70
2019-06-04T02:41:25.940Z,59.43
2019-06-04T02:44:21.508Z,61.00
2019-06-04T02:47:18.909Z,64.90
2019-06-04T02:50:16.362Z,63.30
2019-06-04T02:53:11.890Z,63.63
2019-06-04T02:56:08.030Z,62.60
2019-06-04T02:59:02.904Z,64.07
2019-06-04T03:01:59.458Z,63.90
2019-06-04T03:04:54.967Z,63.97
2019-06-04T03:07:51.571Z,64.50
2019-06-04T03:10:48.097Z,63.97
2019-06-04T03:13:44.680Z,62.48
2019-06-04T03:16:42.359Z,62.50
2019-06-04T03:19:38.076Z,65.23
2019-06-04T03:22:34.585Z,68.10
2019-06-04T03:25:29.951Z,63.90
2019-06-04T03:28:26.596Z,64.60
2019-06-04T03:31:25.955Z,65.55
2019-06-04T03:34:23.807Z,69.03
2019-06-04T03:37:16.903Z,62.87
2019-06-04T03:40:13.648Z,63.00
2019-06-04T03:43:09.153Z,65.20
2019-06-04T03:46:07.133Z,63.70
2019-06-04T03:49:03.287Z,66.40
2019-06-04T03:51:59.831Z,65.72
2019-06-04T03:54:56.637Z,64.23
2019-06-04T03:57:52.437Z,62.97
2019-06-04T04:00:48.995Z,63.50
2019-06-04T04:03:44.237Z,66.00
2019-06-04T04:06:40.903Z,63.10
2019-06-04T04:09:37.213Z,61.00
2019-06-04T04:12:33.834Z,64.65
2019-06-04T04:15:32.284Z,65.65
2019-06-04T04:18:29.469Z,62.33
2019-06-04T04:21:27.183Z,64.93
2019-06-04T04:24:22.955Z,64.13
2019-06-04T04:27:19.791Z,63.07
2019-06-04T04:30:16.735Z,70.40
2019-06-04T04:33:11.189Z,65.13
2019-06-04T04:36:08.991Z,63.60
2019-06-04T04:39:03.927Z,63.57
2019-06-04T04:42:01.679Z,63.60
2019-06-04T04:44:57.513Z,64.40
2019-06-04T04:47:54.065Z,64.53
2019-06-04T04:50:49.725Z,65.00
2019-06-04T04:53:46.248Z,66.43
2019-06-04T04:56:42.203Z,67.20
2019-06-04T04:59:38.102Z,68.12
2019-06-04T05:02:35.929Z,67.37
2019-06-04T05:05:31.415Z,64.30
2019-06-04T05:08:32.176Z,65.13
2019-06-04T05:11:28.966Z,64.50
2019-06-04T05:14:24.825Z,66.13
2019-06-04T05:17:23.231Z,68.30
2019-06-04T05:20:17.347Z,67.93
2019-06-04T05:23:13.893Z,69.97
2019-06-04T05:26:09.991Z,65.83
2019-06-04T05:29:06.419Z,67.30
2019-06-04T05:32:03.120Z,66.83
2019-06-04T05:35:04.346Z,67.27
2019-06-04T05:37:57.132Z,70.17
2019-06-04T05:40:55.893Z,70.17
2019-06-04T05:43:52.463Z,69.90
2019-06-04T05:46:51.576Z,67.47
2019-06-04T05:49:47.495Z,65.17
2019-06-04T05:52:45.265Z,65.30
2019-06-04T05:55:41.131Z,71.77
2019-06-04T05:58:37.178Z,70.13
2019-06-04T06:01:35.916Z,67.47
2019-06-04T06:04:29.706Z,67.90
2019-06-04T06:07:27.852Z,66.40
2019-06-04T06:10:21.669Z,65.53
2019-06-04T06:13:18.747Z,65.47
2019-06-04T06:16:15.377Z,69.50
2019-06-04T06:19:12.202Z,66.80
2019-06-04T06:22:08.654Z,69.10
2019-06-04T06:25:04.647Z,65.30
2019-06-04T06:28:01.219Z,67.83
2019-06-04T06:30:58.224Z,66.27
2019-06-04T06:33:56.048Z,69.40
2019-06-04T06:36:52.690Z,65.13
2019-06-04T06:39:50.421Z,67.10
2019-06-04T06:42:46.257Z,68.07
2019-06-04T06:45:42.815Z,67.80
2019-06-04T06:48:39.681Z,68.00
2019-06-04T06:51:35.541Z,67.97
2019-06-04T06:54:36.538Z,69.60
2019-06-04T06:57:30.323Z,67.17
2019-06-04T07:00:25.436Z,69.00
2019-06-04T07:03:22.841Z,70.87
2019-06-04T07:06:20.716Z,72.20
2019-06-04T07:09:16.643Z,67.80
2019-06-04T07:12:16.351Z,69.93
2019-06-04T07:15:13.351Z,78.23
2019-06-04T07:18:09.969Z,73.23
2019-06-04T07:21:06.763Z,72.37
2019-06-04T07:24:02.481Z,77.97
2019-06-04T07:27:00.055Z,73.47
2019-06-04T07:29:55.873Z,70.10
2019-06-04T07:32:52.267Z,81.43
2019-06-04T07:35:47.868Z,73.40
2019-06-04T07:38:44.472Z,73.97
2019-06-04T07:41:42.921Z,73.35
2019-06-04T07:44:41.001Z,71.50
2019-06-04T07:47:36.056Z,73.37
2019-06-04T07:50:33.781Z,72.67
2019-06-04T07:53:28.400Z,71.07
2019-06-04T07:56:26.419Z,72.63
2019-06-04T07:59:22.222Z,82.03
2019-06-04T08:02:20.190Z,79.43
2019-06-04T08:05:17.986Z,71.53
2019-06-04T08:08:13.084Z,72.90
2019-06-04T08:11:09.428Z,74.67
2019-06-04T08:14:05.712Z,77.10
2019-06-04T08:17:03.557Z,73.37
2019-06-04T08:19:59.377Z,73.30
2019-06-04T08:22:55.359Z,71.83
2019-06-04T08:25:50.913Z,73.53
2019-06-04T08:28:47.612Z,75.00
2019-06-04T08:31:45.634Z,72.47
2019-06-04T08:34:42.361Z,74.50
2019-06-04T08:37:38.809Z,74.83
2019-06-04T08:40:33.396Z,75.67
2019-06-04T08:43:32.120Z,77.58
2019-06-04T08:46:27.281Z,74.10
2019-06-04T08:49:24.249Z,74.75
2019-06-04T08:52:20.994Z,78.33
2019-06-04T08:55:17.658Z,79.47
2019-06-04T08:58:14.630Z,80.13
2019-06-04T09:01:10.431Z,77.83
2019-06-04T09:04:07.116Z,86.60
2019-06-04T09:07:02.817Z,81.60
2019-06-04T09:10:05.098Z,78.17
2019-06-04T09:12:56.219Z,78.57
2019-06-04T09:15:55.968Z,77.23
2019-06-04T09:18:50.749Z,79.17
2019-06-04T09:21:47.618Z,76.63
2019-06-04T09:24:53.298Z,80.30
2019-06-04T09:27:47.211Z,83.70
2019-06-04T09:30:51.401Z,79.33
2019-06-04T09:33:41.337Z,80.57
2019-06-04T09:36:37.028Z,85.20
2019-06-04T09:39:33.705Z,81.23
2019-06-04T09:42:29.538Z,80.33
2019-06-04T09:45:27.312Z,79.50
2019-06-04T09:48:24.333Z,82.07
2019-06-04T09:51:19.767Z,81.63
2019-06-04T09:54:16.368Z,84.90
2019-06-04T09:57:12.116Z,83.93
2019-06-04T10:00:08.808Z,87.70
2019-06-04T10:03:04.855Z,81.87
2019-06-04T10:06:01.475Z,81.40
2019-06-04T10:08:58.155Z,80.13
2019-06-04T10:11:53.938Z,83.10
2019-06-04T10:14:50.862Z,82.02
2019-06-04T10:17:47.701Z,80.63
2019-06-04T10:20:46.053Z,83.00
2019-06-04T10:23:40.880Z,83.30
2019-06-04T10:26:37.091Z,87.17
2019-06-04T10:29:33.651Z,89.20
2019-06-04T10:32:29.329Z,85.47
2019-06-04T10:35:25.916Z,83.40
2019-06-04T10:38:28.390Z,84.30
2019-06-04T10:41:18.075Z,91.63
2019-06-04T10:44:14.740Z,84.90
2019-06-04T10:47:11.563Z,85.38
2019-06-04T10:50:08.678Z,87.50
2019-06-04T10:53:04.527Z,83.10
2019-06-04T10:56:01.085Z,82.33
2019-06-04T10:58:56.811Z,90.50
2019-06-04T11:01:54.021Z,89.53
2019-06-04T11:04:50.207Z,87.00
2019-06-04T11:07:48.162Z,85.27
2019-06-04T11:10:45.190Z,88.03
2019-06-04T11:13:41.703Z,86.30
2019-06-04T11:16:37.846Z,89.70
2019-06-04T11:19:33.748Z,87.00
2019-06-04T11:22:29.569Z,87.27
2019-06-04T11:25:25.215Z,87.30
2019-06-04T11:28:21.738Z,91.07
2019-06-04T11:31:17.312Z,92.22
2019-06-04T11:34:24.260Z,88.60
2019-06-04T11:37:10.514Z,86.83
2019-06-04T11:40:09.780Z,88.90
2019-06-04T11:43:11.668Z,88.00
2019-06-04T11:46:06.131Z,93.37
2019-06-04T11:49:04.100Z,94.13
2019-06-04T11:52:01.859Z,91.40
2019-06-04T11:54:59.950Z,89.60
2019-06-04T11:57:55.695Z,89.77
2019-06-04T12:01:16.517Z,89.70
2019-06-04T12:04:03.377Z,88.33
2019-06-04T12:06:58.965Z,72.85
2019-06-04T12:09:57.038Z,92.85
2019-06-04T12:12:52.918Z,93.23
2019-06-04T12:15:49.546Z,90.93
2019-06-04T12:18:47.524Z,95.60
2019-06-04T12:21:45.162Z,95.60
2019-06-04T12:24:42.068Z,93.22
2019-06-04T12:27:38.751Z,95.28
2019-06-04T12:30:35.350Z,78.40
2019-06-04T12:33:31.123Z,95.70
2019-06-04T12:36:27.792Z,100.03
2019-06-04T12:39:25.657Z,98.43
2019-06-04T12:42:21.800Z,81.33
2019-06-04T12:45:18.667Z,96.97
2019-06-04T12:48:16.255Z,104.27
2019-06-04T12:51:13.515Z,104.97
2019-06-04T12:54:10.309Z,109.17
2019-06-04T12:57:05.964Z,107.37
2019-06-04T13:00:04.607Z,75.70
2019-06-04T13:02:59.101Z,100.20
2019-06-04T13:05:55.301Z,100.30
2019-06-04T13:08:53.341Z,99.87
2019-06-04T13:11:50.089Z,118.20
2019-06-04T13:14:46.751Z,93.55
2019-06-04T13:17:42.886Z,102.30
2019-06-04T13:20:39.844Z,104.20
2019-06-04T13:23:36.714Z,194.13
2019-06-04T13:26:33.461Z,92.13
2019-06-04T13:29:44.302Z,72.97
2019-06-04T13:32:26.719Z,68.80
2019-06-04T13:35:23.178Z,93.03
2019-06-04T13:38:19.961Z,77.20
2019-06-04T13:41:16.546Z,70.67
2019-06-04T13:44:12.371Z,69.10
2019-06-04T13:47:09.805Z,79.40
2019-06-04T13:50:07.704Z,85.83
2019-06-04T13:53:06.222Z,88.37
2019-06-04T13:55:59.753Z,99.37
2019-06-04T13:58:54.942Z,75.78
2019-06-04T14:01:51.673Z,71.73
2019-06-04T14:04:48.334Z,97.05
2019-06-04T14:07:43.903Z,65.70
2019-06-04T14:10:50.066Z,80.45
2019-06-04T14:13:36.949Z,80.53
2019-06-04T14:16:34.763Z,63.87
2019-06-04T14:19:31.638Z,75.40
2019-06-04T14:22:28.291Z,62.93
2019-06-04T14:25:37.417Z,65.83
2019-06-04T14:28:34.521Z,73.78
2019-06-04T14:31:30.465Z,67.73
2019-06-04T14:34:27.148Z,62.80
2019-06-04T14:37:22.764Z,84.52
2019-06-04T14:40:32.153Z,66.10
2019-06-04T14:43:16.496Z,62.65
2019-06-04T14:46:13.702Z,62.80
2019-06-04T14:49:09.871Z,60.40
2019-06-04T14:52:05.863Z,68.80
2019-06-04T14:55:03.591Z,67.00
2019-06-04T14:57:59.296Z,72.17
2019-06-04T15:00:56.168Z,62.30
2019-06-04T15:03:52.062Z,61.25
2019-06-04T15:06:49.096Z,62.30
2019-06-04T15:09:46.076Z,70.85
2019-06-04T15:12:44.071Z,60.43
2019-06-04T15:15:40.964Z,61.50
2019-06-04T15:18:37.628Z,69.58
2019-06-04T15:21:35.360Z,60.50
2019-06-04T15:24:30.619Z,57.50
2019-06-04T15:27:27.546Z,64.63
2019-06-04T15:30:24.983Z,59.80
2019-06-04T15:33:22.319Z,69.67
2019-06-04T15:36:26.055Z,62.00
2019-06-04T15:39:18.707Z,70.97
2019-06-04T15:42:16.993Z,69.95
2019-06-04T15:45:18.462Z,57.20
2019-06-04T15:48:09.504Z,64.30
2019-06-04T15:51:06.326Z,82.78
2019-06-04T15:54:03.403Z,60.10
2019-06-04T15:57:00.308Z,70.05
2019-06-04T16:00:05.041Z,67.77
2019-06-04T16:03:02.918Z,71.15
2019-06-04T16:05:59.565Z,59.90
2019-06-04T16:08:58.300Z,71.37
2019-06-04T16:12:07.142Z,70.72
2019-06-04T16:14:52.326Z,73.20
2019-06-04T16:17:47.758Z,60.30
2019-06-04T16:21:01.519Z,71.30
2019-06-04T16:23:59.547Z,72.22
2019-06-04T16:26:55.287Z,72.82
2019-06-04T16:29:52.108Z,61.93
2019-06-04T16:32:47.865Z,64.77
2019-06-04T16:35:45.765Z,65.30
2019-06-04T16:38:41.639Z,68.15
2019-06-04T16:41:39.381Z,73.75
2019-06-04T16:44:36.331Z,68.20
2019-06-04T16:47:33.277Z,69.75
2019-06-04T16:50:29.264Z,72.03
2019-06-04T16:53:25.357Z,67.73
2019-06-04T16:56:21.207Z,73.93
2019-06-04T16:59:17.589Z,68.80
2019-06-04T17:02:15.689Z,72.73
2019-06-04T17:05:11.385Z,71.30
2019-06-04T17:08:08.478Z,69.17
2019-06-04T17:11:06.052Z,74.50
2019-06-04T17:14:04.212Z,77.50
2019-06-04T17:17:01.980Z,73.52
2019-06-04T17:19:57.794Z,73.07
2019-06-04T17:22:55.590Z,71.63
2019-06-04T17:25:52.381Z,73.43
2019-06-04T17:28:47.624Z,71.13
2019-06-04T17:31:44.404Z,73.30
2019-06-04T17:34:40.323Z,74.43
2019-06-04T17:37:37.827Z,72.43
2019-06-04T17:40:34.624Z,74.65
2019-06-04T17:43:31.969Z,77.57
2019-06-04T17:46:29.883Z,75.60
2019-06-04T17:49:23.897Z,76.80
2019-06-04T17:52:20.671Z,74.47
2019-06-04T17:55:16.439Z,78.07
2019-06-04T17:58:13.341Z,72.70
2019-06-04T18:01:09.129Z,77.70
2019-06-04T18:04:06.948Z,70.92
2019-06-04T18:07:03.540Z,72.13
2019-06-04T18:10:00.386Z,70.53
2019-06-04T18:12:58.371Z,72.57
2019-06-04T18:15:52.871Z,73.40
2019-06-04T18:18:49.902Z,77.70
2019-06-04T18:21:51.091Z,73.27
2019-06-04T18:24:42.354Z,71.10
2019-06-04T18:27:40.685Z,72.07
2019-06-04T18:30:39.450Z,75.57
2019-06-04T18:33:37.788Z,71.37
2019-06-04T18:36:34.749Z,73.75
2019-06-04T18:39:34.646Z,70.73
2019-06-04T18:42:32.411Z,71.80
2019-06-04T18:45:28.785Z,71.37
2019-06-04T18:48:25.596Z,69.50
2019-06-04T18:51:29.002Z,78.63
2019-06-04T18:54:25.757Z,70.70
2019-06-04T18:57:23.204Z,70.13
2019-06-04T19:00:20.473Z,72.07
2019-06-04T19:03:17.213Z,70.53
2019-06-04T19:06:16.412Z,70.57
2019-06-04T19:09:13.327Z,72.87
2019-06-04T19:12:15.638Z,69.47
2019-06-04T19:15:13.990Z,69.80
2019-06-04T19:18:11.461Z,67.80
2019-06-04T19:21:09.703Z,70.03
2019-06-04T19:24:09.153Z,71.53
2019-06-04T19:27:05.622Z,73.47
2019-06-04T19:30:03.561Z,70.40
2019-06-04T19:33:07.112Z,68.20
2019-06-04T19:36:04.556Z,69.17
2019-06-04T19:39:02.174Z,69.53
2019-06-04T19:41:58.685Z,68.60
2019-06-04T19:44:58.427Z,68.70
2019-06-04T19:47:54.677Z,71.07
2019-06-04T19:50:51.976Z,67.97
2019-06-04T19:53:49.935Z,67.50
2019-06-04T19:56:46.465Z,67.67
2019-06-04T19:59:43.829Z,74.13
2019-06-04T20:02:43.921Z,69.10
2019-06-04T20:05:52.102Z,68.50
2019-06-04T20:08:38.537Z,68.83
2019-06-04T20:11:34.764Z,70.90
2019-06-04T20:17:28.327Z,68.10
2019-06-04T20:19:00.702Z,67.50
2019-06-04T20:20:29.312Z,71.77
2019-06-04T20:23:25.159Z,68.97
2019-06-04T20:26:40.337Z,68.60
2019-06-04T20:29:36.018Z,72.80
2019-06-04T20:32:32.000Z,70.20
2019-06-04T20:35:28.855Z,74.43
2019-06-04T20:38:24.422Z,75.83
2019-06-04T20:41:20.346Z,77.57
2019-06-04T20:44:24.486Z,75.90
2019-06-04T20:47:20.141Z,90.10
2019-06-04T20:50:16.259Z,82.50
2019-06-04T20:53:12.185Z,102.33
2019-06-04T20:56:08.946Z,74.63
2019-06-04T20:59:04.969Z,82.80
2019-06-04T21:02:07.089Z,86.20
2019-06-04T21:05:19.305Z,82.88
2019-06-04T21:08:15.724Z,87.02
2019-06-04T21:11:12.183Z,75.43
2019-06-04T21:14:08.145Z,78.57
2019-06-04T21:17:05.097Z,73.93
2019-06-04T21:20:01.975Z,73.90
2019-06-04T21:22:57.772Z,78.50
2019-06-04T21:25:55.354Z,83.43
2019-06-04T21:29:01.120Z,74.17
2019-06-04T21:31:58.876Z,75.30
2019-06-04T21:34:55.294Z,73.80
2019-06-04T21:37:52.292Z,69.30
2019-06-04T21:40:50.480Z,74.27
2019-06-04T21:43:46.017Z,71.40
2019-06-04T21:46:43.017Z,70.37
2019-06-04T21:49:38.714Z,71.93
2019-06-04T21:52:35.586Z,70.60
2019-06-04T21:55:32.289Z,73.27
2019-06-04T21:58:28.088Z,73.47
2019-06-04T22:01:25.027Z,70.30
2019-06-04T22:04:21.721Z,69.80
2019-06-04T22:07:19.699Z,73.30
2019-06-04T22:10:16.103Z,70.78
2019-06-04T22:13:12.953Z,70.10
2019-06-04T22:16:10.928Z,71.30
2019-06-04T22:19:06.639Z,69.95
2019-06-04T22:22:02.369Z,70.50
2019-06-04T22:25:00.435Z,71.20
2019-06-04T22:27:55.189Z,70.72
2019-06-04T22:30:54.437Z,71.90
2019-06-04T22:33:51.264Z,72.07
2019-06-04T22:36:46.802Z,72.77
2019-06-04T22:39:44.099Z,75.10
2019-06-04T22:42:39.728Z,70.45
2019-06-04T22:45:36.171Z,70.43
2019-06-04T22:48:31.974Z,73.87
2019-06-04T22:51:28.760Z,74.93
2019-06-04T22:54:24.915Z,73.90
2019-06-04T22:57:21.539Z,70.87
2019-06-04T23:00:18.218Z,71.83
2019-06-04T23:03:14.070Z,72.93
2019-06-04T23:06:09.914Z,71.20
2019-06-04T23:09:06.115Z,74.03
2019-06-04T23:12:03.755Z,69.97
2019-06-04T23:15:00.117Z,68.15
2019-06-04T23:17:57.359Z,69.00
2019-06-04T23:20:53.628Z,68.90
2019-06-04T23:23:49.198Z,72.80
2019-06-04T23:26:47.103Z,70.05
2019-06-04T23:29:43.629Z,66.85
2019-06-04T23:32:40.203Z,65.90
2019-06-04T23:35:35.446Z,69.00
2019-06-04T23:38:33.321Z,64.80
2019-06-04T23:41:29.028Z,65.10
2019-06-04T23:44:25.861Z,64.57
2019-06-04T23:47:22.666Z,65.47
2019-06-04T23:50:19.237Z,69.72
2019-06-04T23:53:14.896Z,68.53
2019-06-04T23:56:11.626Z,67.57
2019-06-04T23:59:10.569Z,66.43
